createdAt,value
2023-01-05T00:02:01.176Z,100.00
2023-01-05T00:04:29.636Z,100.00
2023-01-05T00:06:57.993Z,100.00
2023-01-05T00:09:26.431Z,100.00
2023-01-05T00:12:13.363Z,100.00
2023-01-05T00:15:00.302Z,100.00
2023-01-05T00:17:47.282Z,100.00
2023-01-05T00:20:40.048Z,100.00
2023-01-05T00:23:09.278Z,100.00
2023-01-05T00:25:41.013Z,100.00
2023-01-05T00:28:09.437Z,100.00
2023-01-05T00:30:44.652Z,100.00
2023-01-05T00:33:17.670Z,100.00
2023-01-05T00:35:46.119Z,100.00
2023-01-05T00:38:14.673Z,100.00
2023-01-05T00:40:43.072Z,100.00
2023-01-05T00:43:11.456Z,100.00
2023-01-05T00:45:39.834Z,100.00
2023-01-05T00:48:08.417Z,100.00
2023-01-05T00:50:36.772Z,100.00
2023-01-05T00:53:05.159Z,100.00
2023-01-05T00:55:33.606Z,100.00
2023-01-05T00:58:01.896Z,100.00
2023-01-05T01:00:30.276Z,100.00
2023-01-05T01:02:58.660Z,100.00
2023-01-05T01:05:27.075Z,100.00
2023-01-05T01:07:55.424Z,100.00
2023-01-05T01:10:25.496Z,100.00
2023-01-05T01:12:54.659Z,100.00
2023-01-05T01:15:22.992Z,100.00
2023-01-05T01:17:51.351Z,100.00
2023-01-05T01:20:20.221Z,100.00
2023-01-05T01:22:48.720Z,100.00
2023-01-05T01:25:17.251Z,100.00
2023-01-05T01:27:45.535Z,100.00
2023-01-05T01:30:14.225Z,100.00
2023-01-05T01:32:42.568Z,100.00
2023-01-05T01:35:11.115Z,100.00
2023-01-05T01:37:39.730Z,100.00
2023-01-05T01:40:09.439Z,100.00
2023-01-05T01:42:37.820Z,99.68
2023-01-05T01:45:24.597Z,99.18
2023-01-05T01:48:01.614Z,99.08
2023-01-05T01:50:47.856Z,98.22
2023-01-05T01:53:35.633Z,97.46
2023-01-05T01:56:07.846Z,97.97
2023-01-05T01:58:37.280Z,98.25
2023-01-05T02:01:05.953Z,98.05
2023-01-05T02:03:34.531Z,97.89
2023-01-05T02:06:02.907Z,98.21
2023-01-05T02:08:31.475Z,98.31
2023-01-05T02:11:19.936Z,98.19
2023-01-05T02:14:02.656Z,98.26
2023-01-05T02:17:06.346Z,98.52
2023-01-05T02:19:56.322Z,98.66
2023-01-05T02:23:07.447Z,98.81
2023-01-05T02:25:54.791Z,99.11
2023-01-05T02:28:41.392Z,99.26
2023-01-05T02:31:22.612Z,99.26
2023-01-05T02:34:26.761Z,99.13
2023-01-05T02:37:05.661Z,98.99
2023-01-05T02:40:00.730Z,98.51
2023-01-05T02:42:34.112Z,98.34
2023-01-05T02:45:06.397Z,98.00
2023-01-05T02:47:43.644Z,97.54
2023-01-05T02:50:42.412Z,97.16
2023-01-05T02:53:17.054Z,96.78
2023-01-05T02:56:13.759Z,96.21
2023-01-05T02:58:50.545Z,95.62
2023-01-05T03:01:25.934Z,95.38
2023-01-05T03:04:23.491Z,95.19
2023-01-05T03:06:58.460Z,93.99
2023-01-05T03:09:36.663Z,94.24
2023-01-05T03:12:53.634Z,93.69
2023-01-05T03:15:32.601Z,93.62
2023-01-05T03:18:06.930Z,93.06
2023-01-05T03:20:37.673Z,93.25
2023-01-05T03:23:29.123Z,93.21
2023-01-05T03:26:17.294Z,93.11
2023-01-05T03:29:12.374Z,93.23
2023-01-05T03:32:36.295Z,92.99
2023-01-05T03:35:34.612Z,92.94
2023-01-05T03:38:28.885Z,92.91
2023-01-05T03:41:03.062Z,92.76
2023-01-05T03:43:36.374Z,93.04
2023-01-05T03:46:25.091Z,93.27
2023-01-05T03:48:53.640Z,93.41
2023-01-05T03:51:21.988Z,93.60
2023-01-05T03:53:50.289Z,93.78
2023-01-05T03:56:18.601Z,93.93
2023-01-05T03:58:46.902Z,94.05
2023-01-05T04:01:15.302Z,94.11
2023-01-05T04:03:43.964Z,94.11
2023-01-05T04:06:12.734Z,94.40
2023-01-05T04:08:41.034Z,94.57
2023-01-05T04:11:21.111Z,94.95
2023-01-05T04:13:49.933Z,95.96
2023-01-05T04:16:18.468Z,96.65
2023-01-05T04:18:46.841Z,97.22
2023-01-05T04:21:15.172Z,97.61
2023-01-05T04:23:43.410Z,98.26
2023-01-05T04:26:11.768Z,98.78
2023-01-05T04:28:40.033Z,99.34
2023-01-05T04:31:08.384Z,99.83
2023-01-05T04:33:39.374Z,99.99
2023-01-05T04:36:08.428Z,100.00
2023-01-05T04:38:36.885Z,100.00
2023-01-05T04:41:05.244Z,100.00
2023-01-05T04:43:33.563Z,100.00
2023-01-05T04:46:02.119Z,100.00
2023-01-05T04:48:31.953Z,100.00
2023-01-05T04:51:00.289Z,100.00
2023-01-05T04:53:28.811Z,100.00
2023-01-05T04:55:57.167Z,100.00
2023-01-05T04:58:25.634Z,100.00
2023-01-05T05:00:53.945Z,100.00
2023-01-05T05:03:23.176Z,100.00
2023-01-05T05:05:52.877Z,100.00
2023-01-05T05:08:21.147Z,100.00
2023-01-05T05:10:49.526Z,100.00
2023-01-05T05:13:17.888Z,100.00
2023-01-05T05:15:46.296Z,100.00
2023-01-05T05:18:14.604Z,100.00
2023-01-05T05:20:46.045Z,100.00
2023-01-05T05:23:14.601Z,100.00
2023-01-05T05:25:42.952Z,100.00
2023-01-05T05:28:11.276Z,100.00
2023-01-05T05:30:39.580Z,100.00
2023-01-05T05:33:07.897Z,100.00
2023-01-05T05:35:36.195Z,100.00
2023-01-05T05:38:04.499Z,100.00
2023-01-05T05:40:32.819Z,100.00
2023-01-05T05:43:01.126Z,100.00
2023-01-05T05:45:29.417Z,100.00
2023-01-05T05:47:58.131Z,100.00
2023-01-05T05:50:26.785Z,100.00
2023-01-05T05:52:55.075Z,100.00
2023-01-05T05:55:23.419Z,100.00
2023-01-05T05:57:51.737Z,100.00
2023-01-05T06:00:20.168Z,100.00
2023-01-05T06:02:48.492Z,100.00
2023-01-05T06:05:17.050Z,100.00
2023-01-05T06:07:45.344Z,100.00
2023-01-05T06:10:13.884Z,100.00
2023-01-05T06:12:42.867Z,100.00
2023-01-05T06:15:11.768Z,100.00
2023-01-05T06:17:40.138Z,100.00
2023-01-05T06:20:09.815Z,100.00
2023-01-05T06:22:38.297Z,100.00
2023-01-05T06:25:07.019Z,100.00
2023-01-05T06:27:35.920Z,100.00
2023-01-05T06:30:05.155Z,100.00
2023-01-05T06:32:33.486Z,100.00
2023-01-05T06:35:01.969Z,100.00
2023-01-05T06:37:30.287Z,100.00
2023-01-05T06:39:58.660Z,100.00
2023-01-05T06:42:27.353Z,100.00
2023-01-05T06:44:55.678Z,100.00
2023-01-05T06:47:24.235Z,100.00
2023-01-05T06:49:52.596Z,100.00
2023-01-05T06:52:20.891Z,100.00
2023-01-05T06:55:14.604Z,100.00
2023-01-05T06:57:42.925Z,100.00
2023-01-05T07:00:17.326Z,100.00
2023-01-05T07:02:48.988Z,100.00
2023-01-05T07:05:17.692Z,100.00
2023-01-05T07:07:46.255Z,100.00
2023-01-05T07:10:14.598Z,100.00
2023-01-05T07:12:42.876Z,100.00
2023-01-05T07:15:11.585Z,100.00
2023-01-05T07:17:39.908Z,100.00
2023-01-05T07:20:08.968Z,100.00
2023-01-05T07:22:37.251Z,100.00
2023-01-05T07:25:06.235Z,100.00
2023-01-05T07:27:34.833Z,100.00
2023-01-05T07:30:03.871Z,100.00
2023-01-05T07:32:32.301Z,100.00
2023-01-05T07:35:00.589Z,100.00
2023-01-05T07:37:28.899Z,100.00
2023-01-05T07:39:57.230Z,100.00
2023-01-05T07:42:26.171Z,100.00
2023-01-05T07:44:54.519Z,100.00
2023-01-05T07:47:22.909Z,100.00
2023-01-05T07:49:51.255Z,100.00
2023-01-05T07:52:19.635Z,100.00
2023-01-05T07:54:47.946Z,100.00
2023-01-05T07:57:16.348Z,100.00
2023-01-05T07:59:44.755Z,100.00
2023-01-05T08:02:13.134Z,100.00
2023-01-05T08:04:41.489Z,100.00
2023-01-05T08:07:11.517Z,100.00
2023-01-05T08:09:58.926Z,100.00
2023-01-05T08:12:29.529Z,100.00
2023-01-05T08:14:57.843Z,100.00
2023-01-05T08:17:26.195Z,100.00
2023-01-05T08:19:54.509Z,100.00
2023-01-05T08:22:22.801Z,100.00
2023-01-05T08:24:52.272Z,100.00
2023-01-05T08:27:20.772Z,100.00
2023-01-05T08:29:49.122Z,100.00
2023-01-05T08:32:17.413Z,100.00
2023-01-05T08:34:49.190Z,100.00
2023-01-05T08:37:21.899Z,100.00
2023-01-05T08:39:50.359Z,100.00
2023-01-05T08:42:18.670Z,100.00
2023-01-05T08:44:47.043Z,100.00
2023-01-05T08:47:18.035Z,100.00
2023-01-05T08:49:47.303Z,100.00
2023-01-05T08:52:15.566Z,100.00
2023-01-05T08:54:44.154Z,100.00
2023-01-05T08:57:12.497Z,100.00
2023-01-05T08:59:41.083Z,100.00
2023-01-05T09:02:12.919Z,100.00
2023-01-05T09:04:41.457Z,100.00
2023-01-05T09:07:09.986Z,100.00
2023-01-05T09:09:38.817Z,100.00
2023-01-05T09:12:07.927Z,100.00
2023-01-05T09:14:36.783Z,100.00
2023-01-05T09:17:07.655Z,100.00
2023-01-05T09:19:37.070Z,100.00
2023-01-05T09:22:05.412Z,100.00
2023-01-05T09:24:33.826Z,100.00
2023-01-05T09:27:03.732Z,100.00
2023-01-05T09:29:32.629Z,100.00
2023-01-05T09:32:01.005Z,100.00
2023-01-05T09:34:29.517Z,100.00
2023-01-05T09:36:57.998Z,100.00
2023-01-05T09:39:26.384Z,100.00
2023-01-05T09:41:59.054Z,100.00
2023-01-05T09:44:42.939Z,100.00
2023-01-05T09:47:19.267Z,100.00
2023-01-05T09:49:50.386Z,100.00
2023-01-05T09:52:22.416Z,100.00
2023-01-05T09:54:50.797Z,100.00
2023-01-05T09:57:28.243Z,100.00
2023-01-05T10:00:05.850Z,100.00
2023-01-05T10:02:59.342Z,100.00
2023-01-05T10:05:29.228Z,100.00
2023-01-05T10:08:04.832Z,100.00
2023-01-05T10:11:09.708Z,100.00
2023-01-05T10:13:51.969Z,99.99
2023-01-05T10:16:23.415Z,99.96
2023-01-05T10:18:56.342Z,100.00
2023-01-05T10:21:55.174Z,100.00
2023-01-05T10:24:50.738Z,99.68
2023-01-05T10:27:41.268Z,99.41
2023-01-05T10:30:20.096Z,99.20
2023-01-05T10:33:26.838Z,99.17
2023-01-05T10:37:06.535Z,98.40
2023-01-05T10:39:57.065Z,97.72
2023-01-05T10:42:57.985Z,97.35
2023-01-05T10:45:30.303Z,97.67
2023-01-05T10:47:59.966Z,96.34
2023-01-05T10:50:38.023Z,96.44
2023-01-05T10:53:29.127Z,96.62
2023-01-05T10:55:57.398Z,95.41
2023-01-05T10:58:46.283Z,96.27
2023-01-05T11:01:29.685Z,95.92
2023-01-05T11:04:34.314Z,96.20
2023-01-05T11:07:06.286Z,95.63
2023-01-05T11:09:40.887Z,94.57
2023-01-05T11:12:20.331Z,95.19
2023-01-05T11:14:58.339Z,96.38
2023-01-05T11:17:29.161Z,98.14
2023-01-05T11:19:58.063Z,99.39
2023-01-05T11:22:37.102Z,100.00
2023-01-05T11:25:27.039Z,100.00
2023-01-05T11:28:18.668Z,100.00
2023-01-05T11:31:07.384Z,100.00
2023-01-05T11:33:39.631Z,100.00
2023-01-05T11:36:08.591Z,100.00
2023-01-05T11:38:37.071Z,100.00
2023-01-05T11:41:11.586Z,100.00
2023-01-05T11:43:40.227Z,100.00
2023-01-05T11:46:09.300Z,100.00
2023-01-05T11:48:38.858Z,100.00
2023-01-05T11:51:07.236Z,100.00
2023-01-05T11:53:38.559Z,100.00
2023-01-05T11:56:23.061Z,100.00
2023-01-05T11:59:00.427Z,100.00
2023-01-05T12:02:18.358Z,100.00
2023-01-05T12:05:17.789Z,100.00
2023-01-05T12:07:56.598Z,100.00
2023-01-05T12:10:59.844Z,100.00
2023-01-05T12:13:46.146Z,100.00
2023-01-05T12:16:49.606Z,100.00
2023-01-05T12:19:58.457Z,100.00
2023-01-05T12:23:03.876Z,100.00
2023-01-05T12:26:11.170Z,100.00
2023-01-05T12:35:49.939Z,100.00
2023-01-05T12:38:28.482Z,100.00
2023-01-05T12:41:31.919Z,100.00
2023-01-05T12:44:38.980Z,100.00
2023-01-05T12:47:22.739Z,100.00
2023-01-05T12:50:33.063Z,100.00
2023-01-05T12:53:44.409Z,100.00
2023-01-05T12:56:44.332Z,100.00
2023-01-05T12:59:24.978Z,100.00
2023-01-05T13:02:08.161Z,100.00
2023-01-05T13:04:54.444Z,100.00
2023-01-05T13:08:04.862Z,100.00
2023-01-05T13:10:33.169Z,100.00
2023-01-05T13:13:10.928Z,100.00
2023-01-05T13:16:11.133Z,100.00
2023-01-05T13:18:47.227Z,100.00
2023-01-05T13:21:16.504Z,100.00
2023-01-05T13:23:55.687Z,100.00
2023-01-05T13:26:24.079Z,100.00
2023-01-05T13:28:56.143Z,100.00
2023-01-05T13:32:03.509Z,100.00
2023-01-05T13:34:46.725Z,100.00
2023-01-05T13:37:44.994Z,100.00
2023-01-05T13:40:43.128Z,100.00
2023-01-05T13:44:08.865Z,100.00
2023-01-05T13:47:08.122Z,100.00
2023-01-05T13:50:07.542Z,100.00
2023-01-05T13:53:02.652Z,100.00
2023-01-05T13:55:35.602Z,100.00
2023-01-05T13:58:06.249Z,100.00
2023-01-05T14:00:41.826Z,100.00
2023-01-05T14:03:10.259Z,99.99
2023-01-05T14:05:52.172Z,99.87
2023-01-05T14:08:27.936Z,99.95
2023-01-05T14:11:17.292Z,99.92
2023-01-05T14:13:59.644Z,100.00
2023-01-05T14:16:43.718Z,100.00
2023-01-05T14:19:33.078Z,100.00
2023-01-05T14:22:34.632Z,100.00
2023-01-05T14:25:38.008Z,100.00
2023-01-05T14:28:21.941Z,100.00
2023-01-05T14:30:52.988Z,100.00
2023-01-05T14:33:21.449Z,100.00
2023-01-05T14:35:49.925Z,100.00
2023-01-05T14:38:24.889Z,100.00
2023-01-05T14:40:56.295Z,100.00
2023-01-05T14:43:33.395Z,100.00
2023-01-05T14:46:07.473Z,100.00
2023-01-05T14:48:59.327Z,100.00
2023-01-05T14:51:36.412Z,100.00
2023-01-05T14:54:06.150Z,100.00
2023-01-05T14:56:37.544Z,100.00
2023-01-05T14:59:30.803Z,100.00
2023-01-05T15:02:16.501Z,100.00
2023-01-05T15:04:45.380Z,100.00
2023-01-05T15:07:53.337Z,100.00
2023-01-05T15:10:43.076Z,100.00
2023-01-05T15:14:09.864Z,100.00
2023-01-05T15:16:58.694Z,100.00
2023-01-05T15:20:23.537Z,100.00
2023-01-05T15:23:35.194Z,99.74
2023-01-05T15:26:32.513Z,98.81
2023-01-05T15:29:47.569Z,97.09
2023-01-05T15:32:27.628Z,96.94
2023-01-05T16:01:16.107Z,92.41
2023-01-05T16:03:48.326Z,92.39
2023-01-05T16:06:24.824Z,92.88
2023-01-05T16:08:58.265Z,92.97
2023-01-05T16:11:33.924Z,92.52
2023-01-05T16:14:05.074Z,92.02
2023-01-05T16:17:05.800Z,92.24
2023-01-05T16:19:42.237Z,92.60
2023-01-05T16:22:22.692Z,92.21
2023-01-05T16:25:24.576Z,92.17
2023-01-05T16:28:03.264Z,92.15
2023-01-05T16:30:31.723Z,92.05
2023-01-05T16:33:26.092Z,92.15
2023-01-05T16:36:20.008Z,92.35
2023-01-05T16:38:49.137Z,92.08
2023-01-05T16:41:26.734Z,92.08
2023-01-05T16:44:01.023Z,91.90
2023-01-05T16:46:30.535Z,92.06
2023-01-05T16:49:24.359Z,91.87
2023-01-05T16:51:53.933Z,92.15
2023-01-05T16:54:39.300Z,92.06
2023-01-05T16:57:31.150Z,92.26
2023-01-05T16:59:59.608Z,92.35
2023-01-05T17:02:46.164Z,92.07
2023-01-05T17:05:23.346Z,92.60
2023-01-05T17:08:12.024Z,93.19
2023-01-05T17:10:41.946Z,93.08
2023-01-05T17:13:21.007Z,93.55
2023-01-05T17:15:52.531Z,93.51
2023-01-05T17:18:24.604Z,93.44
2023-01-05T17:20:56.616Z,93.12
2023-01-05T17:23:49.562Z,93.08
2023-01-05T17:26:24.705Z,92.95
2023-01-05T17:28:58.897Z,93.17
2023-01-05T17:31:27.946Z,93.20
2023-01-05T17:33:56.343Z,93.07
2023-01-05T17:36:32.522Z,93.05
2023-01-05T17:39:01.540Z,92.93
2023-01-05T17:41:30.004Z,92.91
2023-01-05T17:43:58.396Z,92.85
2023-01-05T17:46:32.647Z,92.30
2023-01-05T17:49:02.102Z,92.33
2023-01-05T17:51:30.962Z,92.18
2023-01-05T17:53:59.999Z,91.93
2023-01-05T17:56:28.290Z,91.39
2023-01-05T17:58:56.720Z,91.72
2023-01-05T18:01:25.133Z,91.51
2023-01-05T18:03:53.481Z,90.99
2023-01-05T18:06:22.082Z,90.55
2023-01-05T18:08:50.515Z,90.36
2023-01-05T18:11:18.876Z,90.31
2023-01-05T18:13:47.200Z,89.29
2023-01-05T18:16:15.665Z,89.52
2023-01-05T18:18:44.161Z,89.07
2023-01-05T18:21:12.514Z,89.67
2023-01-05T18:23:40.859Z,89.11
2023-01-05T18:26:10.279Z,89.14
2023-01-05T18:28:38.777Z,89.66
2023-01-05T18:31:16.037Z,89.86
2023-01-05T18:33:44.484Z,89.81
2023-01-05T18:36:14.687Z,90.15
2023-01-05T18:38:43.445Z,90.67
2023-01-05T18:41:13.009Z,91.15
2023-01-05T18:43:41.617Z,91.50
2023-01-05T18:46:10.066Z,91.74
2023-01-05T18:48:38.450Z,91.93
2023-01-05T18:51:09.109Z,91.93
2023-01-05T18:53:38.827Z,91.98
2023-01-05T18:56:09.761Z,91.89
2023-01-05T18:58:47.227Z,92.10
2023-01-05T19:01:19.113Z,92.61
2023-01-05T19:03:47.891Z,92.43
2023-01-05T19:06:20.375Z,92.43
2023-01-05T19:08:49.563Z,92.58
2023-01-05T19:11:27.601Z,92.37
2023-01-05T19:13:58.884Z,92.30
2023-01-05T19:16:30.723Z,92.26
2023-01-05T19:19:04.897Z,92.07
2023-01-05T19:21:36.070Z,92.19
2023-01-05T19:24:06.967Z,91.89
2023-01-05T19:26:38.034Z,91.91
2023-01-05T19:29:06.617Z,92.03
2023-01-05T19:31:36.118Z,91.40
2023-01-05T19:34:05.804Z,91.21
2023-01-05T19:36:36.013Z,91.22
2023-01-05T19:39:08.841Z,90.67
2023-01-05T19:41:39.374Z,90.46
2023-01-05T19:44:12.539Z,90.23
2023-01-05T19:46:41.258Z,90.12
2023-01-05T19:49:23.631Z,90.22
2023-01-05T19:51:52.713Z,90.11
2023-01-05T19:54:22.629Z,89.93
2023-01-05T19:56:51.180Z,89.52
2023-01-05T19:59:24.715Z,89.47
2023-01-05T20:01:54.873Z,89.18
2023-01-05T20:04:23.592Z,88.66
2023-01-05T20:06:51.950Z,88.67
2023-01-05T20:09:20.411Z,88.50
2023-01-05T20:11:59.092Z,88.52
2023-01-05T20:14:31.373Z,88.09
2023-01-05T20:17:06.396Z,88.12
2023-01-05T20:19:37.019Z,88.49
2023-01-05T20:22:13.620Z,88.66
2023-01-05T20:24:43.264Z,88.85
2023-01-05T20:27:14.574Z,88.95
2023-01-05T20:29:43.024Z,89.02
2023-01-05T20:32:16.459Z,89.19
2023-01-05T20:34:52.011Z,89.32
2023-01-05T20:37:21.781Z,89.37
2023-01-05T20:39:50.637Z,89.64
2023-01-05T20:42:18.967Z,89.76
2023-01-05T20:44:47.900Z,89.71
2023-01-05T20:47:17.849Z,89.82
2023-01-05T20:49:46.746Z,89.84
2023-01-05T20:52:17.686Z,89.71
2023-01-05T20:54:46.249Z,89.85
2023-01-05T20:57:14.553Z,89.99
2023-01-05T20:59:42.896Z,89.79
2023-01-05T21:02:22.941Z,89.87
2023-01-05T21:04:53.437Z,90.01
2023-01-05T21:07:22.549Z,89.99
2023-01-05T21:09:52.329Z,89.92
2023-01-05T21:12:20.971Z,89.70
2023-01-05T21:14:49.589Z,89.71
2023-01-05T21:17:18.607Z,89.80
2023-01-05T21:19:46.896Z,89.88
2023-01-05T21:22:15.541Z,89.96
2023-01-05T21:24:45.321Z,90.16
2023-01-05T21:27:13.684Z,90.19
2023-01-05T21:29:42.083Z,90.25
2023-01-05T21:32:10.572Z,90.44
2023-01-05T21:34:38.985Z,90.51
2023-01-05T21:37:07.391Z,90.66
2023-01-05T21:39:35.709Z,90.54
2023-01-05T21:42:22.967Z,90.72
2023-01-05T21:44:51.286Z,90.61
2023-01-05T21:47:19.622Z,90.71
2023-01-05T21:49:47.983Z,90.79
2023-01-05T21:52:34.900Z,90.50
2023-01-05T21:55:21.932Z,90.58
2023-01-05T21:57:50.224Z,90.68
2023-01-05T22:00:18.661Z,90.36
2023-01-05T22:02:47.192Z,90.10
2023-01-05T22:05:15.982Z,90.06
2023-01-05T22:07:44.475Z,89.67
2023-01-05T22:10:13.065Z,89.47
2023-01-05T22:12:41.423Z,89.48
2023-01-05T22:15:10.799Z,89.28
2023-01-05T22:17:39.205Z,88.84
2023-01-05T22:20:08.317Z,88.51
2023-01-05T22:22:36.823Z,88.23
2023-01-05T22:25:05.797Z,88.28
2023-01-05T22:27:34.143Z,87.95
2023-01-05T22:30:02.420Z,87.77
2023-01-05T22:32:30.827Z,87.60
2023-01-05T22:34:59.110Z,87.71
2023-01-05T22:37:27.618Z,87.40
2023-01-05T22:39:56.155Z,87.57
2023-01-05T22:42:24.452Z,87.46
2023-01-05T22:44:52.766Z,87.21
2023-01-05T22:47:21.098Z,87.21
2023-01-05T22:49:49.446Z,87.05
2023-01-05T22:52:17.758Z,87.14
2023-01-05T22:54:46.068Z,86.69
2023-01-05T22:57:14.417Z,86.71
2023-01-05T22:59:42.746Z,86.73
2023-01-05T23:02:11.045Z,86.49
2023-01-05T23:04:39.400Z,86.38
2023-01-05T23:07:07.741Z,86.14
2023-01-05T23:09:36.072Z,86.37
2023-01-05T23:12:05.015Z,86.45
2023-01-05T23:14:33.314Z,86.41
2023-01-05T23:17:01.802Z,86.62
2023-01-05T23:19:30.138Z,86.75
2023-01-05T23:21:58.658Z,86.88
2023-01-05T23:24:27.029Z,86.87
2023-01-05T23:26:55.702Z,86.84
2023-01-05T23:29:25.919Z,86.66
2023-01-05T23:31:55.179Z,86.71
2023-01-05T23:34:23.533Z,86.67
2023-01-05T23:36:51.908Z,86.65
2023-01-05T23:39:20.229Z,86.84
2023-01-05T23:41:48.728Z,86.96
2023-01-05T23:44:17.192Z,86.87
2023-01-05T23:46:46.347Z,87.01
2023-01-05T23:49:14.658Z,87.07
2023-01-05T23:51:42.983Z,87.20
2023-01-05T23:54:11.317Z,87.12
2023-01-05T23:56:39.629Z,87.15
2023-01-05T23:59:08.949Z,87.39
